Ksar Chellala, Algérie

10:05 CET le 30 juillet 2014 (GMT +0100)
A. Boussouf Ain Bouchekif (DAOB) Alt. 3245 ft | 35.34 °N, 1.46 °E | Change Station

Current weather conditions updated 1 hour ago

Clear
Ciel dégagé
75 ° F
Paraît 75 ° F
N
6
Vent Variable Vent de Est

Aujourd’hui il est prévu de faire plus chaud qu’hier.

Aujourd'hui
Haut(e) -- | Bas -- ° F
--% Risque de précip.
Hier
Haut(e) -- | Bas -- ° F
Precip. -- pouce
5:58 AM 7:55 PM
Lune montante, 10% visible
Pression 30.04 pouce
Visibilité -9999.0 Miles terrestres
Nuages
Point de rosée 54 ° F
Humidité 47%
Précipitations 0.00 pouce
Profondeur de la couche neigeuse Non disponible.
UV Non disponible.
Pollen Non disponible.
Qualité de l'air Non disponible.
Flu Activity Non disponible.
METAR DAOB 300800Z 08005KT CAVOK 24/12 Q1017

More Conditions Fewer Conditions

Pression 30.04 pouce
Visibilité -9999.0 Miles terrestres
Nuages
Point de rosée 54 ° F
Humidité 47%
Précipitations 0.00 pouce
Profondeur de la couche neigeuse Non disponible.
UV Non disponible.
Pollen Non disponible.
Qualité de l'air Non disponible.
Flu Activity Non disponible.
METAR DAOB 300800Z 08005KT CAVOK 24/12 Q1017

More Conditions Fewer Conditions

10-Day Weather Forecast

Almanac

Astronomie

Jul. 30, 2014 Lever Coucher
Temps réel 05:58 CET 19:55 CET
Crépuscule civil 05:30 CET 20:23 CET
Crépuscule nautique 04:55 CET 20:57 CET
Crépuscule astronomique 04:19 CET 21:34 CET
Lune 09:06 CET 21:40 CET
Durée de lumière visible 14h 53m
Longueur du jour
13h 57m
Tomorrow will be 1m 36s shorter.
Lune montante, 10% of the Moon is Illuminated
Aujourd'hui
Lune montante
août 3
Premier quartier
août 10
Pleine lune
août 17
Dernier quartier
août 25
Nouveau

Les extrêmes de température d’hier

Country Highs Country Lows

Community

WunderPhotos

Upload Photos

1,739,018 Photos téléchargées !

WunderBlogs® & News

By Dr. Jeff Masters
Director of Meteorology, Weather Underground
By Kari Strenfel
Meteorologist, Weather Underground
By Christopher C. Burt
Weather Historian, Weather Underground
July 29, 2014
July 29, 2014
July 29, 2014

Nearby

Qualité de l'air

Not available.

Épaisseur de neige

Not available.

Activité sismique

Ville Distance Mag. Time & Date
No recent earthquake activity has been reported nearby.
Minimum magnitude displayed is 2.5.

Températures des eaux côtières

Lieu Température
Aucun rapport de station

Stations météo à proximité

Il n'y a aucune station météorologique personnelle dans cette zone.